GCC Virtual Airport Information Service

Dubai International Airport

ICAO: OMDB Country: AE
Latitude: 25.2528 Longitude: 55.3644
Latest Arrival : UAE840 (OBBI-OMDB) Latest Departure : GFA505 (OMDB-OBBI)


WX CaptureLIVE
Data provided by noaa.gov | Fetched at 07:55:06

METAR : OMDB 270700Z 20008KT 160V220 8000 NSC 20/16 Q1019 NOSIG

TAF : OMDB 270500Z 2706/2812 19005KT 1500 BR BKN008 BECMG 2706/2708 8000 NSW NSC BECMG 2708/2710 33010KT BECMG 2716/2718 08005KT PROB40 2723/2807 4000 HZ PROB30 2802/2806 1500 BR BKN008 BECMG 2809/2811 34010KT


Runway Data for OMDB
Data provided by openaviationdata.com

Runway ID Mag Var Hdg Length Elevation Surface ILS Freq ILS Id ILS Slope
12L 1 119° 13143 ft 34 ft Asphalt 110.1 IDBL 3
12R 1 119° 14606 ft 34 ft Asphalt 109.5 IDBE 3
30L 1 299° 14606 ft 34 ft Asphalt 111.3 IDBW 3
30R 1 299° 13143 ft 34 ft Asphalt 110.9 IDBR 3

Dubai International Airport, AE
Use only for reference purposes



Not for navigational purposes.